Jequitai, Brazil
Current Conditions -  °F | °C
As of 9:00 PM on Tuesday 21 Oct 2014 (Local Time) from SBMK Reporting Station
Overcast Overcast  
Wind Chill: 75°   Ceiling: 10000
Heat Index: 75°   Visibility: 6mi
Dew Point: 64°   Wind: 5mph
Humidity: 69%   Direction: 180°S
Pressure: 29.97"   Gusts: NA
Location:  17.24°S, 44.45°W
Report Text: SBMK 212300Z 18004KT 150V230 9999 FEW048 OVC100 24/18 Q1015
Loading
Personal Weather Stations






























Interactive Weather Map
Tropical Storm Tracking
New forecast layout! Learn more

10-Day Weather Forecast

Advertisements
Track Severe Weather on mobile